sensor_id;sensor_type;location;lat;lon;timestamp;P1;durP1;ratioP1;P2;durP2;ratioP2
4577;SDS011;2301;47.354;8.528;2023-02-15T00:01:34;20.23;;;12.27;;
4577;SDS011;2301;47.354;8.528;2023-02-15T00:04:03;20.13;;;11.70;;
4577;SDS011;2301;47.354;8.528;2023-02-15T00:06:31;18.48;;;11.32;;
4577;SDS011;2301;47.354;8.528;2023-02-15T00:09:01;21.17;;;11.77;;
4577;SDS011;2301;47.354;8.528;2023-02-15T00:11:31;21.05;;;11.80;;
4577;SDS011;2301;47.354;8.528;2023-02-15T00:14:08;17.38;;;11.27;;
4577;SDS011;2301;47.354;8.528;2023-02-15T00:16:38;14.93;;;9.23;;
4577;SDS011;2301;47.354;8.528;2023-02-15T00:19:06;18.48;;;11.98;;
4577;SDS011;2301;47.354;8.528;2023-02-15T00:21:34;15.30;;;10.05;;
4577;SDS011;2301;47.354;8.528;2023-02-15T00:24:03;15.88;;;10.30;;
4577;SDS011;2301;47.354;8.528;2023-02-15T00:26:31;17.25;;;11.63;;
4577;SDS011;2301;47.354;8.528;2023-02-15T00:28:58;20.15;;;11.50;;
4577;SDS011;2301;47.354;8.528;2023-02-15T00:31:26;17.95;;;11.52;;
4577;SDS011;2301;47.354;8.528;2023-02-15T00:33:56;12.95;;;9.13;;
4577;SDS011;2301;47.354;8.528;2023-02-15T00:36:27;15.80;;;9.85;;
4577;SDS011;2301;47.354;8.528;2023-02-15T00:38:54;13.63;;;9.35;;
4577;SDS011;2301;47.354;8.528;2023-02-15T00:41:22;12.77;;;9.43;;
4577;SDS011;2301;47.354;8.528;2023-02-15T00:43:48;18.00;;;10.13;;
4577;SDS011;2301;47.354;8.528;2023-02-15T00:46:15;16.88;;;10.65;;
4577;SDS011;2301;47.354;8.528;2023-02-15T00:48:42;20.25;;;9.20;;
4577;SDS011;2301;47.354;8.528;2023-02-15T00:51:11;14.45;;;9.98;;
4577;SDS011;2301;47.354;8.528;2023-02-15T00:53:38;13.68;;;9.18;;
4577;SDS011;2301;47.354;8.528;2023-02-15T00:56:05;13.10;;;9.02;;
4577;SDS011;2301;47.354;8.528;2023-02-15T00:58:31;11.43;;;8.38;;
4577;SDS011;2301;47.354;8.528;2023-02-15T01:01:02;13.73;;;9.45;;
4577;SDS011;2301;47.354;8.528;2023-02-15T01:03:31;11.48;;;8.10;;
4577;SDS011;2301;47.354;8.528;2023-02-15T01:05:58;16.42;;;9.80;;
4577;SDS011;2301;47.354;8.528;2023-02-15T01:08:27;15.75;;;10.30;;
4577;SDS011;2301;47.354;8.528;2023-02-15T01:10:54;13.43;;;8.48;;
4577;SDS011;2301;47.354;8.528;2023-02-15T01:13:21;12.80;;;9.02;;
4577;SDS011;2301;47.354;8.528;2023-02-15T01:15:52;10.98;;;7.57;;
4577;SDS011;2301;47.354;8.528;2023-02-15T01:18:20;11.52;;;8.05;;
4577;SDS011;2301;47.354;8.528;2023-02-15T01:20:48;13.23;;;8.23;;
4577;SDS011;2301;47.354;8.528;2023-02-15T01:23:15;11.65;;;8.60;;
4577;SDS011;2301;47.354;8.528;2023-02-15T01:25:44;12.60;;;8.98;;
4577;SDS011;2301;47.354;8.528;2023-02-15T01:28:11;12.02;;;8.50;;
4577;SDS011;2301;47.354;8.528;2023-02-15T01:30:38;15.23;;;9.98;;
4577;SDS011;2301;47.354;8.528;2023-02-15T01:33:05;13.45;;;9.55;;
4577;SDS011;2301;47.354;8.528;2023-02-15T01:35:32;11.18;;;8.05;;
4577;SDS011;2301;47.354;8.528;2023-02-15T01:37:58;15.10;;;8.77;;
4577;SDS011;2301;47.354;8.528;2023-02-15T01:40:25;13.57;;;8.18;;
4577;SDS011;2301;47.354;8.528;2023-02-15T01:42:54;19.50;;;11.05;;
4577;SDS011;2301;47.354;8.528;2023-02-15T01:45:22;13.68;;;8.68;;
4577;SDS011;2301;47.354;8.528;2023-02-15T01:47:52;13.68;;;9.43;;
4577;SDS011;2301;47.354;8.528;2023-02-15T01:50:23;13.05;;;8.38;;
4577;SDS011;2301;47.354;8.528;2023-02-15T01:52:56;12.73;;;8.00;;
4577;SDS011;2301;47.354;8.528;2023-02-15T01:55:29;11.55;;;8.75;;
4577;SDS011;2301;47.354;8.528;2023-02-15T01:58:01;12.15;;;7.75;;
4577;SDS011;2301;47.354;8.528;2023-02-15T02:00:28;14.10;;;8.13;;
4577;SDS011;2301;47.354;8.528;2023-02-15T02:02:55;11.90;;;8.35;;
4577;SDS011;2301;47.354;8.528;2023-02-15T02:05:23;13.48;;;8.85;;
4577;SDS011;2301;47.354;8.528;2023-02-15T02:07:51;13.63;;;8.05;;
4577;SDS011;2301;47.354;8.528;2023-02-15T02:10:22;10.40;;;7.45;;
4577;SDS011;2301;47.354;8.528;2023-02-15T02:12:53;10.75;;;7.97;;
4577;SDS011;2301;47.354;8.528;2023-02-15T02:15:28;12.15;;;8.35;;
4577;SDS011;2301;47.354;8.528;2023-02-15T02:18:11;11.80;;;8.38;;
4577;SDS011;2301;47.354;8.528;2023-02-15T02:20:55;12.40;;;8.60;;
4577;SDS011;2301;47.354;8.528;2023-02-15T02:23:35;11.80;;;8.30;;
4577;SDS011;2301;47.354;8.528;2023-02-15T02:26:27;12.82;;;6.93;;
4577;SDS011;2301;47.354;8.528;2023-02-15T02:29:33;12.70;;;8.63;;
4577;SDS011;2301;47.354;8.528;2023-02-15T02:35:20;12.02;;;7.50;;
4577;SDS011;2301;47.354;8.528;2023-02-15T02:37:55;20.90;;;9.73;;
4577;SDS011;2301;47.354;8.528;2023-02-15T02:40:32;12.68;;;7.63;;
4577;SDS011;2301;47.354;8.528;2023-02-15T02:43:10;9.73;;;7.07;;
4577;SDS011;2301;47.354;8.528;2023-02-15T02:45:44;11.10;;;7.95;;
4577;SDS011;2301;47.354;8.528;2023-02-15T02:48:18;12.52;;;8.20;;
4577;SDS011;2301;47.354;8.528;2023-02-15T02:50:49;8.73;;;6.88;;
4577;SDS011;2301;47.354;8.528;2023-02-15T02:53:16;9.35;;;7.45;;
4577;SDS011;2301;47.354;8.528;2023-02-15T02:55:44;11.88;;;8.00;;
4577;SDS011;2301;47.354;8.528;2023-02-15T02:58:14;10.68;;;7.20;;
4577;SDS011;2301;47.354;8.528;2023-02-15T03:00:44;11.70;;;7.20;;
4577;SDS011;2301;47.354;8.528;2023-02-15T03:03:15;13.77;;;8.02;;
4577;SDS011;2301;47.354;8.528;2023-02-15T03:05:50;9.60;;;7.20;;
4577;SDS011;2301;47.354;8.528;2023-02-15T03:08:20;10.65;;;7.50;;
4577;SDS011;2301;47.354;8.528;2023-02-15T03:10:51;11.70;;;7.10;;
4577;SDS011;2301;47.354;8.528;2023-02-15T03:13:20;9.40;;;6.95;;
4577;SDS011;2301;47.354;8.528;2023-02-15T03:15:48;9.70;;;7.40;;
4577;SDS011;2301;47.354;8.528;2023-02-15T03:18:36;9.38;;;6.80;;
4577;SDS011;2301;47.354;8.528;2023-02-15T03:21:08;9.32;;;6.97;;
4577;SDS011;2301;47.354;8.528;2023-02-15T03:23:47;10.45;;;7.07;;
4577;SDS011;2301;47.354;8.528;2023-02-15T03:26:18;9.30;;;6.40;;
4577;SDS011;2301;47.354;8.528;2023-02-15T03:28:47;12.55;;;9.00;;
4577;SDS011;2301;47.354;8.528;2023-02-15T03:31:19;12.00;;;6.60;;
4577;SDS011;2301;47.354;8.528;2023-02-15T03:33:50;11.45;;;8.35;;
4577;SDS011;2301;47.354;8.528;2023-02-15T03:36:22;13.40;;;8.20;;
4577;SDS011;2301;47.354;8.528;2023-02-15T03:38:56;11.38;;;8.35;;
4577;SDS011;2301;47.354;8.528;2023-02-15T03:41:29;15.10;;;9.75;;
4577;SDS011;2301;47.354;8.528;2023-02-15T03:44:02;11.02;;;8.02;;
4577;SDS011;2301;47.354;8.528;2023-02-15T03:46:33;13.07;;;7.93;;
4577;SDS011;2301;47.354;8.528;2023-02-15T03:49:03;10.45;;;7.47;;
4577;SDS011;2301;47.354;8.528;2023-02-15T03:51:35;22.52;;;9.07;;
4577;SDS011;2301;47.354;8.528;2023-02-15T03:54:07;12.52;;;8.68;;
4577;SDS011;2301;47.354;8.528;2023-02-15T03:56:36;11.40;;;8.32;;
4577;SDS011;2301;47.354;8.528;2023-02-15T03:59:04;11.18;;;7.82;;
4577;SDS011;2301;47.354;8.528;2023-02-15T04:01:52;22.88;;;8.02;;
4577;SDS011;2301;47.354;8.528;2023-02-15T04:04:31;10.18;;;7.43;;
4577;SDS011;2301;47.354;8.528;2023-02-15T04:07:02;9.65;;;7.18;;
4577;SDS011;2301;47.354;8.528;2023-02-15T04:09:31;12.23;;;8.27;;
4577;SDS011;2301;47.354;8.528;2023-02-15T04:12:15;10.50;;;8.13;;
4577;SDS011;2301;47.354;8.528;2023-02-15T04:14:42;12.07;;;7.85;;
4577;SDS011;2301;47.354;8.528;2023-02-15T04:17:27;10.85;;;7.45;;
4577;SDS011;2301;47.354;8.528;2023-02-15T04:19:54;9.38;;;6.18;;
4577;SDS011;2301;47.354;8.528;2023-02-15T04:22:40;17.65;;;8.57;;
4577;SDS011;2301;47.354;8.528;2023-02-15T04:25:24;9.70;;;7.10;;
4577;SDS011;2301;47.354;8.528;2023-02-15T04:27:51;10.10;;;6.68;;
4577;SDS011;2301;47.354;8.528;2023-02-15T04:30:20;12.30;;;7.18;;
4577;SDS011;2301;47.354;8.528;2023-02-15T04:32:49;10.77;;;8.15;;
4577;SDS011;2301;47.354;8.528;2023-02-15T04:35:16;13.77;;;7.88;;
4577;SDS011;2301;47.354;8.528;2023-02-15T04:37:45;13.43;;;8.60;;
4577;SDS011;2301;47.354;8.528;2023-02-15T04:40:13;10.50;;;7.90;;
4577;SDS011;2301;47.354;8.528;2023-02-15T04:42:40;13.68;;;8.35;;
4577;SDS011;2301;47.354;8.528;2023-02-15T04:45:07;11.25;;;8.10;;
4577;SDS011;2301;47.354;8.528;2023-02-15T04:47:34;11.68;;;8.00;;
4577;SDS011;2301;47.354;8.528;2023-02-15T04:50:02;11.60;;;7.60;;
4577;SDS011;2301;47.354;8.528;2023-02-15T04:52:30;13.20;;;7.72;;
4577;SDS011;2301;47.354;8.528;2023-02-15T04:54:58;13.60;;;8.52;;
4577;SDS011;2301;47.354;8.528;2023-02-15T04:57:25;9.65;;;7.22;;
4577;SDS011;2301;47.354;8.528;2023-02-15T04:59:52;11.93;;;8.20;;
4577;SDS011;2301;47.354;8.528;2023-02-15T05:02:19;12.10;;;7.70;;
4577;SDS011;2301;47.354;8.528;2023-02-15T05:04:46;17.35;;;9.55;;
4577;SDS011;2301;47.354;8.528;2023-02-15T05:07:13;13.85;;;9.07;;
4577;SDS011;2301;47.354;8.528;2023-02-15T05:09:40;17.58;;;7.88;;
4577;SDS011;2301;47.354;8.528;2023-02-15T05:12:09;17.38;;;8.73;;
4577;SDS011;2301;47.354;8.528;2023-02-15T05:14:36;8.85;;;6.90;;
4577;SDS011;2301;47.354;8.528;2023-02-15T05:17:03;12.00;;;7.10;;
4577;SDS011;2301;47.354;8.528;2023-02-15T05:19:30;12.07;;;7.75;;
4577;SDS011;2301;47.354;8.528;2023-02-15T05:21:58;14.45;;;8.75;;
4577;SDS011;2301;47.354;8.528;2023-02-15T05:24:25;18.48;;;9.18;;
4577;SDS011;2301;47.354;8.528;2023-02-15T05:27:11;16.83;;;7.40;;
4577;SDS011;2301;47.354;8.528;2023-02-15T05:29:56;14.68;;;9.27;;
4577;SDS011;2301;47.354;8.528;2023-02-15T05:32:23;27.10;;;9.85;;
4577;SDS011;2301;47.354;8.528;2023-02-15T05:34:50;13.27;;;8.55;;
4577;SDS011;2301;47.354;8.528;2023-02-15T05:37:17;22.83;;;8.77;;
4577;SDS011;2301;47.354;8.528;2023-02-15T05:39:44;17.15;;;8.20;;
4577;SDS011;2301;47.354;8.528;2023-02-15T05:42:12;15.35;;;7.63;;
4577;SDS011;2301;47.354;8.528;2023-02-15T05:44:39;10.32;;;7.00;;
4577;SDS011;2301;47.354;8.528;2023-02-15T05:47:06;15.38;;;8.70;;
4577;SDS011;2301;47.354;8.528;2023-02-15T05:49:33;10.05;;;7.80;;
4577;SDS011;2301;47.354;8.528;2023-02-15T05:52:01;15.35;;;9.32;;
4577;SDS011;2301;47.354;8.528;2023-02-15T05:54:29;10.32;;;7.50;;
4577;SDS011;2301;47.354;8.528;2023-02-15T05:56:56;12.68;;;8.88;;
4577;SDS011;2301;47.354;8.528;2023-02-15T05:59:24;11.50;;;7.57;;
4577;SDS011;2301;47.354;8.528;2023-02-15T06:01:51;11.82;;;7.97;;
4577;SDS011;2301;47.354;8.528;2023-02-15T06:04:18;10.73;;;7.75;;
4577;SDS011;2301;47.354;8.528;2023-02-15T06:06:45;11.98;;;8.40;;
4577;SDS011;2301;47.354;8.528;2023-02-15T06:09:12;13.02;;;8.50;;
4577;SDS011;2301;47.354;8.528;2023-02-15T06:11:39;10.60;;;7.57;;
4577;SDS011;2301;47.354;8.528;2023-02-15T06:14:07;13.77;;;8.60;;
4577;SDS011;2301;47.354;8.528;2023-02-15T06:16:40;11.25;;;7.85;;
4577;SDS011;2301;47.354;8.528;2023-02-15T06:19:09;12.23;;;8.40;;
4577;SDS011;2301;47.354;8.528;2023-02-15T06:21:36;12.63;;;8.82;;
4577;SDS011;2301;47.354;8.528;2023-02-15T06:24:03;12.13;;;7.90;;
4577;SDS011;2301;47.354;8.528;2023-02-15T06:26:30;17.38;;;9.35;;
4577;SDS011;2301;47.354;8.528;2023-02-15T06:28:57;14.70;;;8.82;;
4577;SDS011;2301;47.354;8.528;2023-02-15T06:31:24;11.07;;;8.95;;
4577;SDS011;2301;47.354;8.528;2023-02-15T06:33:52;25.33;;;9.88;;
4577;SDS011;2301;47.354;8.528;2023-02-15T06:36:25;11.95;;;8.55;;
4577;SDS011;2301;47.354;8.528;2023-02-15T06:38:52;12.30;;;8.55;;
4577;SDS011;2301;47.354;8.528;2023-02-15T06:41:19;14.05;;;8.18;;
4577;SDS011;2301;47.354;8.528;2023-02-15T06:43:46;12.20;;;8.45;;
4577;SDS011;2301;47.354;8.528;2023-02-15T06:46:13;14.75;;;9.80;;
4577;SDS011;2301;47.354;8.528;2023-02-15T06:48:40;19.90;;;9.80;;
4577;SDS011;2301;47.354;8.528;2023-02-15T06:51:08;12.38;;;8.80;;
4577;SDS011;2301;47.354;8.528;2023-02-15T06:53:35;10.38;;;7.85;;
4577;SDS011;2301;47.354;8.528;2023-02-15T06:56:02;10.77;;;7.50;;
4577;SDS011;2301;47.354;8.528;2023-02-15T06:58:31;10.30;;;7.25;;
4577;SDS011;2301;47.354;8.528;2023-02-15T07:00:58;14.52;;;9.60;;
4577;SDS011;2301;47.354;8.528;2023-02-15T07:03:25;13.27;;;8.93;;
4577;SDS011;2301;47.354;8.528;2023-02-15T07:05:53;11.93;;;8.35;;
4577;SDS011;2301;47.354;8.528;2023-02-15T07:08:22;10.55;;;7.28;;
4577;SDS011;2301;47.354;8.528;2023-02-15T07:10:50;11.63;;;8.20;;
4577;SDS011;2301;47.354;8.528;2023-02-15T07:13:41;14.88;;;9.30;;
4577;SDS011;2301;47.354;8.528;2023-02-15T07:16:08;15.60;;;10.00;;
4577;SDS011;2301;47.354;8.528;2023-02-15T07:18:35;15.32;;;8.95;;
4577;SDS011;2301;47.354;8.528;2023-02-15T07:21:02;17.50;;;12.15;;
4577;SDS011;2301;47.354;8.528;2023-02-15T07:23:31;24.02;;;13.27;;
4577;SDS011;2301;47.354;8.528;2023-02-15T07:25:58;18.42;;;12.00;;
4577;SDS011;2301;47.354;8.528;2023-02-15T07:28:25;17.77;;;12.40;;
4577;SDS011;2301;47.354;8.528;2023-02-15T07:30:52;18.80;;;12.70;;
4577;SDS011;2301;47.354;8.528;2023-02-15T07:33:19;35.92;;;14.40;;
4577;SDS011;2301;47.354;8.528;2023-02-15T07:35:49;20.98;;;13.70;;
4577;SDS011;2301;47.354;8.528;2023-02-15T07:38:17;21.65;;;14.13;;
4577;SDS011;2301;47.354;8.528;2023-02-15T07:40:46;28.48;;;14.27;;
4577;SDS011;2301;47.354;8.528;2023-02-15T07:43:13;25.63;;;15.35;;
4577;SDS011;2301;47.354;8.528;2023-02-15T07:45:41;24.70;;;14.80;;
4577;SDS011;2301;47.354;8.528;2023-02-15T07:48:17;23.08;;;14.88;;
4577;SDS011;2301;47.354;8.528;2023-02-15T07:50:46;25.15;;;14.02;;
4577;SDS011;2301;47.354;8.528;2023-02-15T07:53:12;24.17;;;14.75;;
4577;SDS011;2301;47.354;8.528;2023-02-15T07:55:39;27.17;;;15.27;;
4577;SDS011;2301;47.354;8.528;2023-02-15T07:58:09;28.95;;;17.38;;
4577;SDS011;2301;47.354;8.528;2023-02-15T08:00:39;28.63;;;16.35;;
4577;SDS011;2301;47.354;8.528;2023-02-15T08:03:26;28.73;;;17.33;;
4577;SDS011;2301;47.354;8.528;2023-02-15T08:05:55;28.33;;;15.70;;
4577;SDS011;2301;47.354;8.528;2023-02-15T08:08:24;29.00;;;15.50;;
4577;SDS011;2301;47.354;8.528;2023-02-15T08:10:58;26.67;;;15.75;;
4577;SDS011;2301;47.354;8.528;2023-02-15T08:13:45;26.30;;;15.35;;
4577;SDS011;2301;47.354;8.528;2023-02-15T08:16:19;30.20;;;18.25;;
4577;SDS011;2301;47.354;8.528;2023-02-15T08:18:46;28.25;;;16.08;;
4577;SDS011;2301;47.354;8.528;2023-02-15T08:21:13;28.65;;;17.10;;
4577;SDS011;2301;47.354;8.528;2023-02-15T08:23:40;29.67;;;17.13;;
4577;SDS011;2301;47.354;8.528;2023-02-15T08:26:07;34.47;;;17.77;;
4577;SDS011;2301;47.354;8.528;2023-02-15T08:28:34;33.08;;;17.17;;
4577;SDS011;2301;47.354;8.528;2023-02-15T08:31:06;33.58;;;18.98;;
4577;SDS011;2301;47.354;8.528;2023-02-15T08:33:34;34.05;;;19.38;;
4577;SDS011;2301;47.354;8.528;2023-02-15T08:36:03;31.50;;;18.40;;
4577;SDS011;2301;47.354;8.528;2023-02-15T08:38:30;35.30;;;18.40;;
4577;SDS011;2301;47.354;8.528;2023-02-15T08:40:58;31.92;;;17.55;;
4577;SDS011;2301;47.354;8.528;2023-02-15T08:43:36;31.92;;;17.52;;
4577;SDS011;2301;47.354;8.528;2023-02-15T08:46:09;33.47;;;17.65;;
4577;SDS011;2301;47.354;8.528;2023-02-15T08:48:40;39.03;;;18.23;;
4577;SDS011;2301;47.354;8.528;2023-02-15T08:51:10;33.35;;;18.05;;
4577;SDS011;2301;47.354;8.528;2023-02-15T08:53:41;34.17;;;19.08;;
4577;SDS011;2301;47.354;8.528;2023-02-15T08:56:09;30.67;;;19.52;;
4577;SDS011;2301;47.354;8.528;2023-02-15T08:58:36;31.13;;;18.67;;
4577;SDS011;2301;47.354;8.528;2023-02-15T09:01:12;33.15;;;18.73;;
4577;SDS011;2301;47.354;8.528;2023-02-15T09:03:43;30.98;;;17.98;;
4577;SDS011;2301;47.354;8.528;2023-02-15T09:06:11;33.08;;;17.95;;
4577;SDS011;2301;47.354;8.528;2023-02-15T09:08:38;34.30;;;19.65;;
4577;SDS011;2301;47.354;8.528;2023-02-15T09:11:09;38.30;;;19.90;;
4577;SDS011;2301;47.354;8.528;2023-02-15T09:13:37;32.30;;;17.83;;
4577;SDS011;2301;47.354;8.528;2023-02-15T09:16:05;32.55;;;18.60;;
4577;SDS011;2301;47.354;8.528;2023-02-15T09:18:36;33.90;;;19.38;;
4577;SDS011;2301;47.354;8.528;2023-02-15T09:21:05;35.33;;;18.58;;
4577;SDS011;2301;47.354;8.528;2023-02-15T09:23:36;33.88;;;18.98;;
4577;SDS011;2301;47.354;8.528;2023-02-15T09:26:04;35.20;;;19.70;;
4577;SDS011;2301;47.354;8.528;2023-02-15T09:28:33;36.70;;;20.80;;
4577;SDS011;2301;47.354;8.528;2023-02-15T09:31:10;34.97;;;19.20;;
4577;SDS011;2301;47.354;8.528;2023-02-15T09:33:42;37.53;;;19.70;;
4577;SDS011;2301;47.354;8.528;2023-02-15T09:36:15;32.97;;;19.25;;
4577;SDS011;2301;47.354;8.528;2023-02-15T09:38:47;42.03;;;22.27;;
4577;SDS011;2301;47.354;8.528;2023-02-15T09:41:33;34.55;;;20.55;;
4577;SDS011;2301;47.354;8.528;2023-02-15T09:44:22;39.70;;;20.42;;
4577;SDS011;2301;47.354;8.528;2023-02-15T09:47:14;39.00;;;21.92;;
4577;SDS011;2301;47.354;8.528;2023-02-15T09:50:00;44.92;;;22.02;;
4577;SDS011;2301;47.354;8.528;2023-02-15T09:52:45;33.35;;;20.63;;
4577;SDS011;2301;47.354;8.528;2023-02-15T09:55:33;35.58;;;22.10;;
4577;SDS011;2301;47.354;8.528;2023-02-15T09:58:11;40.45;;;20.95;;
4577;SDS011;2301;47.354;8.528;2023-02-15T10:00:49;37.65;;;21.27;;
4577;SDS011;2301;47.354;8.528;2023-02-15T10:03:27;37.83;;;20.02;;
4577;SDS011;2301;47.354;8.528;2023-02-15T10:06:09;31.00;;;19.90;;
4577;SDS011;2301;47.354;8.528;2023-02-15T10:09:03;35.42;;;20.40;;
4577;SDS011;2301;47.354;8.528;2023-02-15T10:11:56;35.13;;;18.70;;
4577;SDS011;2301;47.354;8.528;2023-02-15T10:14:44;33.40;;;19.52;;
4577;SDS011;2301;47.354;8.528;2023-02-15T10:17:26;35.10;;;20.92;;
4577;SDS011;2301;47.354;8.528;2023-02-15T10:20:11;35.10;;;19.83;;
4577;SDS011;2301;47.354;8.528;2023-02-15T10:22:48;36.75;;;21.67;;
4577;SDS011;2301;47.354;8.528;2023-02-15T10:25:29;40.65;;;20.67;;
4577;SDS011;2301;47.354;8.528;2023-02-15T10:28:03;41.65;;;21.70;;
4577;SDS011;2301;47.354;8.528;2023-02-15T10:30:34;41.38;;;20.63;;
4577;SDS011;2301;47.354;8.528;2023-02-15T10:33:12;35.80;;;21.52;;
4577;SDS011;2301;47.354;8.528;2023-02-15T10:35:51;35.47;;;21.10;;
4577;SDS011;2301;47.354;8.528;2023-02-15T10:38:34;32.17;;;20.08;;
4577;SDS011;2301;47.354;8.528;2023-02-15T10:41:09;35.92;;;20.63;;
4577;SDS011;2301;47.354;8.528;2023-02-15T10:43:51;34.40;;;20.20;;
4577;SDS011;2301;47.354;8.528;2023-02-15T10:46:36;34.42;;;20.90;;
4577;SDS011;2301;47.354;8.528;2023-02-15T10:49:23;36.67;;;21.70;;
4577;SDS011;2301;47.354;8.528;2023-02-15T10:52:13;37.78;;;20.42;;
4577;SDS011;2301;47.354;8.528;2023-02-15T10:54:57;33.40;;;19.42;;
4577;SDS011;2301;47.354;8.528;2023-02-15T10:57:34;35.85;;;20.98;;
4577;SDS011;2301;47.354;8.528;2023-02-15T11:00:09;40.17;;;22.05;;
4577;SDS011;2301;47.354;8.528;2023-02-15T11:02:46;35.20;;;21.02;;
4577;SDS011;2301;47.354;8.528;2023-02-15T11:05:25;36.83;;;21.10;;
4577;SDS011;2301;47.354;8.528;2023-02-15T11:08:02;35.58;;;21.33;;
4577;SDS011;2301;47.354;8.528;2023-02-15T11:10:35;37.00;;;22.75;;
4577;SDS011;2301;47.354;8.528;2023-02-15T11:13:06;43.60;;;19.90;;
4577;SDS011;2301;47.354;8.528;2023-02-15T11:15:36;31.80;;;20.98;;
4577;SDS011;2301;47.354;8.528;2023-02-15T11:18:09;34.22;;;21.20;;
4577;SDS011;2301;47.354;8.528;2023-02-15T11:20:42;33.90;;;20.60;;
4577;SDS011;2301;47.354;8.528;2023-02-15T11:23:15;37.00;;;22.10;;
4577;SDS011;2301;47.354;8.528;2023-02-15T11:25:45;34.50;;;22.60;;
4577;SDS011;2301;47.354;8.528;2023-02-15T11:28:19;39.15;;;23.15;;
4577;SDS011;2301;47.354;8.528;2023-02-15T11:30:51;39.13;;;21.55;;
4577;SDS011;2301;47.354;8.528;2023-02-15T11:33:22;31.20;;;20.92;;
4577;SDS011;2301;47.354;8.528;2023-02-15T11:35:53;33.13;;;20.33;;
4577;SDS011;2301;47.354;8.528;2023-02-15T11:38:26;31.67;;;20.42;;
4577;SDS011;2301;47.354;8.528;2023-02-15T11:40:59;34.35;;;21.08;;
4577;SDS011;2301;47.354;8.528;2023-02-15T11:43:32;37.50;;;20.83;;
4577;SDS011;2301;47.354;8.528;2023-02-15T11:46:06;35.80;;;20.70;;
4577;SDS011;2301;47.354;8.528;2023-02-15T11:48:38;36.25;;;20.52;;
4577;SDS011;2301;47.354;8.528;2023-02-15T11:51:08;32.63;;;19.30;;
4577;SDS011;2301;47.354;8.528;2023-02-15T11:53:41;31.15;;;19.65;;
4577;SDS011;2301;47.354;8.528;2023-02-15T11:56:13;30.85;;;19.45;;
4577;SDS011;2301;47.354;8.528;2023-02-15T11:58:43;29.85;;;18.15;;
4577;SDS011;2301;47.354;8.528;2023-02-15T12:01:15;38.75;;;20.30;;
4577;SDS011;2301;47.354;8.528;2023-02-15T12:03:46;31.25;;;19.42;;
4577;SDS011;2301;47.354;8.528;2023-02-15T12:06:16;37.45;;;19.90;;
4577;SDS011;2301;47.354;8.528;2023-02-15T12:08:51;28.58;;;18.48;;
4577;SDS011;2301;47.354;8.528;2023-02-15T12:11:26;31.23;;;19.48;;
4577;SDS011;2301;47.354;8.528;2023-02-15T12:13:58;33.70;;;20.60;;
4577;SDS011;2301;47.354;8.528;2023-02-15T12:16:27;29.63;;;19.95;;
4577;SDS011;2301;47.354;8.528;2023-02-15T12:18:58;31.10;;;18.88;;
4577;SDS011;2301;47.354;8.528;2023-02-15T12:21:28;31.65;;;20.58;;
4577;SDS011;2301;47.354;8.528;2023-02-15T12:24:00;36.22;;;21.83;;
4577;SDS011;2301;47.354;8.528;2023-02-15T12:26:31;33.25;;;21.77;;
4577;SDS011;2301;47.354;8.528;2023-02-15T12:29:01;35.33;;;21.50;;
4577;SDS011;2301;47.354;8.528;2023-02-15T12:31:36;35.45;;;21.15;;
4577;SDS011;2301;47.354;8.528;2023-02-15T12:34:09;42.78;;;21.30;;
4577;SDS011;2301;47.354;8.528;2023-02-15T12:36:40;38.90;;;22.10;;
4577;SDS011;2301;47.354;8.528;2023-02-15T12:39:16;37.90;;;23.48;;
4577;SDS011;2301;47.354;8.528;2023-02-15T12:41:57;33.75;;;21.73;;
4577;SDS011;2301;47.354;8.528;2023-02-15T12:44:30;35.15;;;22.30;;
4577;SDS011;2301;47.354;8.528;2023-02-15T12:46:59;45.75;;;23.45;;
4577;SDS011;2301;47.354;8.528;2023-02-15T12:49:29;35.10;;;22.05;;
4577;SDS011;2301;47.354;8.528;2023-02-15T12:51:58;42.33;;;25.13;;
4577;SDS011;2301;47.354;8.528;2023-02-15T12:54:36;43.85;;;26.42;;
4577;SDS011;2301;47.354;8.528;2023-02-15T12:57:20;38.90;;;24.52;;
4577;SDS011;2301;47.354;8.528;2023-02-15T12:59:51;39.10;;;24.70;;
4577;SDS011;2301;47.354;8.528;2023-02-15T13:02:21;41.13;;;23.98;;
4577;SDS011;2301;47.354;8.528;2023-02-15T13:04:53;40.15;;;24.42;;
4577;SDS011;2301;47.354;8.528;2023-02-15T13:07:22;41.65;;;24.73;;
4577;SDS011;2301;47.354;8.528;2023-02-15T13:09:56;50.90;;;25.90;;
4577;SDS011;2301;47.354;8.528;2023-02-15T13:12:26;46.78;;;24.80;;
4577;SDS011;2301;47.354;8.528;2023-02-15T13:14:57;37.72;;;25.95;;
4577;SDS011;2301;47.354;8.528;2023-02-15T13:17:28;50.05;;;27.15;;
4577;SDS011;2301;47.354;8.528;2023-02-15T13:20:00;47.95;;;26.73;;
4577;SDS011;2301;47.354;8.528;2023-02-15T13:22:36;40.45;;;25.65;;
4577;SDS011;2301;47.354;8.528;2023-02-15T13:25:10;48.45;;;27.70;;
4577;SDS011;2301;47.354;8.528;2023-02-15T13:27:42;49.30;;;26.65;;
4577;SDS011;2301;47.354;8.528;2023-02-15T13:30:18;40.08;;;24.75;;
4577;SDS011;2301;47.354;8.528;2023-02-15T13:32:51;52.17;;;27.02;;
4577;SDS011;2301;47.354;8.528;2023-02-15T13:35:21;40.05;;;25.85;;
4577;SDS011;2301;47.354;8.528;2023-02-15T13:37:54;47.75;;;27.00;;
4577;SDS011;2301;47.354;8.528;2023-02-15T13:40:30;42.40;;;27.23;;
4577;SDS011;2301;47.354;8.528;2023-02-15T13:43:05;43.30;;;26.20;;
4577;SDS011;2301;47.354;8.528;2023-02-15T13:45:48;41.78;;;26.00;;
4577;SDS011;2301;47.354;8.528;2023-02-15T13:48:30;46.25;;;28.05;;
4577;SDS011;2301;47.354;8.528;2023-02-15T13:51:08;38.92;;;25.58;;
4577;SDS011;2301;47.354;8.528;2023-02-15T13:53:53;44.13;;;28.60;;
4577;SDS011;2301;47.354;8.528;2023-02-15T13:56:48;48.33;;;27.38;;
4577;SDS011;2301;47.354;8.528;2023-02-15T14:05:15;45.92;;;26.30;;
4577;SDS011;2301;47.354;8.528;2023-02-15T14:08:00;45.90;;;27.58;;
4577;SDS011;2301;47.354;8.528;2023-02-15T14:10:38;44.40;;;26.92;;
4577;SDS011;2301;47.354;8.528;2023-02-15T14:13:26;51.00;;;28.10;;
4577;SDS011;2301;47.354;8.528;2023-02-15T14:16:09;42.45;;;26.63;;
4577;SDS011;2301;47.354;8.528;2023-02-15T14:18:44;40.33;;;24.90;;
4577;SDS011;2301;47.354;8.528;2023-02-15T14:21:15;37.58;;;25.00;;
4577;SDS011;2301;47.354;8.528;2023-02-15T14:23:52;44.83;;;27.00;;
4577;SDS011;2301;47.354;8.528;2023-02-15T14:26:30;48.97;;;26.30;;
4577;SDS011;2301;47.354;8.528;2023-02-15T14:29:05;39.75;;;24.77;;
4577;SDS011;2301;47.354;8.528;2023-02-15T14:31:45;44.30;;;26.05;;
4577;SDS011;2301;47.354;8.528;2023-02-15T14:34:17;42.40;;;26.40;;
4577;SDS011;2301;47.354;8.528;2023-02-15T14:36:48;44.10;;;25.05;;
4577;SDS011;2301;47.354;8.528;2023-02-15T14:39:18;42.72;;;25.63;;
4577;SDS011;2301;47.354;8.528;2023-02-15T14:42:11;48.15;;;25.70;;
4577;SDS011;2301;47.354;8.528;2023-02-15T14:44:47;41.60;;;23.75;;
4577;SDS011;2301;47.354;8.528;2023-02-15T14:47:21;44.55;;;26.65;;
4577;SDS011;2301;47.354;8.528;2023-02-15T14:49:53;39.00;;;23.52;;
4577;SDS011;2301;47.354;8.528;2023-02-15T14:52:19;37.00;;;22.45;;
4577;SDS011;2301;47.354;8.528;2023-02-15T14:54:54;35.50;;;23.98;;
4577;SDS011;2301;47.354;8.528;2023-02-15T14:57:25;37.08;;;23.63;;
4577;SDS011;2301;47.354;8.528;2023-02-15T14:59:56;36.40;;;22.90;;
4577;SDS011;2301;47.354;8.528;2023-02-15T15:02:26;37.03;;;22.65;;
4577;SDS011;2301;47.354;8.528;2023-02-15T15:05:06;37.08;;;22.67;;
4577;SDS011;2301;47.354;8.528;2023-02-15T15:07:41;38.22;;;20.92;;
4577;SDS011;2301;47.354;8.528;2023-02-15T15:16:29;31.20;;;20.70;;
4577;SDS011;2301;47.354;8.528;2023-02-15T15:19:13;32.65;;;20.45;;
4577;SDS011;2301;47.354;8.528;2023-02-15T15:22:40;31.30;;;19.52;;
4577;SDS011;2301;47.354;8.528;2023-02-15T15:25:09;33.47;;;20.38;;
4577;SDS011;2301;47.354;8.528;2023-02-15T15:27:39;28.45;;;19.13;;
4577;SDS011;2301;47.354;8.528;2023-02-15T15:36:33;27.98;;;17.98;;
4577;SDS011;2301;47.354;8.528;2023-02-15T15:42:40;31.70;;;17.85;;
4577;SDS011;2301;47.354;8.528;2023-02-15T15:51:04;25.80;;;16.85;;
4577;SDS011;2301;47.354;8.528;2023-02-15T15:53:39;30.25;;;18.15;;
4577;SDS011;2301;47.354;8.528;2023-02-15T15:56:12;27.60;;;18.20;;